Time;durP1;ratioP1;P1;durP2;ratioP2;P2;SDS_P1;SDS_P2;PMS_P1;PMS_P2;Temp;Humidity;BMP_temperature;BMP_pressure;BME280_temperature;BME280_humidity;BME280_pressure;Samples;Min_cycle;Max_cycle;Signal;HPM_P1;HPM_P2
2023/06/09 00:01:11;;;;;;;7.90;7.20;;;;;;;16.35;80.53;98653.03;4974901;28;42794;-82
2023/06/09 00:03:40;;;;;;;6.43;5.93;;;;;;;16.34;80.77;98656.69;4974710;28;42258;-82
2023/06/09 00:06:08;;;;;;;7.23;6.53;;;;;;;16.31;80.20;98657.00;4974582;28;39997;-82
2023/06/09 00:08:37;;;;;;;7.27;6.57;;;;;;;16.27;80.52;98651.06;4957407;28;42046;-81
2023/06/09 00:11:05;;;;;;;6.67;6.17;;;;;;;16.26;80.99;98648.53;4941449;28;41826;-82
2023/06/09 00:13:33;;;;;;;7.90;7.23;;;;;;;16.26;80.46;98648.53;4957313;28;42306;-82
2023/06/09 00:16:00;;;;;;;6.70;6.20;;;;;;;16.25;80.17;98653.03;4957439;28;40662;-82
2023/06/09 00:18:28;;;;;;;6.63;6.13;;;;;;;16.22;80.38;98652.44;4957309;28;41846;-82
2023/06/09 00:20:56;;;;;;;6.13;5.63;;;;;;;16.21;80.22;98645.41;4957041;28;42755;-82
2023/06/09 00:23:24;;;;;;;6.60;6.00;;;;;;;16.03;79.80;98627.38;4957239;28;42467;-82
2023/06/09 00:25:53;;;;;;;6.37;5.80;;;;;;;16.17;79.86;98648.38;4941014;28;38754;-82
2023/06/09 00:28:20;;;;;;;5.93;5.43;;;;;;;16.15;79.75;98644.97;4942388;28;40542;-82
2023/06/09 00:30:50;;;;;;;7.87;7.23;;;;;;;16.14;80.39;98645.97;4942177;28;43033;-82
2023/06/09 00:33:19;;;;;;;6.90;6.30;;;;;;;16.12;79.86;98641.72;4942101;28;41369;-82
2023/06/09 00:35:49;;;;;;;7.43;6.73;;;;;;;16.07;80.43;98638.63;4958096;28;39689;-82
2023/06/09 00:38:16;;;;;;;6.27;5.77;;;;;;;16.03;79.98;98642.56;4958087;28;41417;-81
2023/06/09 00:40:44;;;;;;;7.23;6.63;;;;;;;15.99;80.20;98641.97;4942151;28;41793;-82
2023/06/09 00:43:13;;;;;;;7.70;6.90;;;;;;;15.96;80.10;98644.06;4941433;28;41217;-82
2023/06/09 00:45:40;;;;;;;7.73;7.10;;;;;;;15.92;80.33;98640.81;4942349;28;39214;-83
2023/06/09 00:48:08;;;;;;;6.40;5.90;;;;;;;15.87;79.79;98637.69;4941119;28;40827;-82
2023/06/09 00:50:39;;;;;;;7.53;6.80;;;;;;;15.72;79.86;98623.00;4958050;28;42931;-82
2023/06/09 00:53:09;;;;;;;7.33;6.63;;;;;;;15.70;80.11;98620.47;4956640;28;41060;-83
2023/06/09 00:55:40;;;;;;;6.83;6.23;;;;;;;15.77;80.12;98635.00;4956862;28;39994;-82
2023/06/09 00:58:09;;;;;;;7.20;6.60;;;;;;;15.73;80.48;98635.38;4940939;28;40734;-82
2023/06/09 01:00:39;;;;;;;7.30;6.70;;;;;;;15.70;81.01;98635.69;4940820;28;41597;-82
2023/06/09 01:03:09;;;;;;;9.00;8.20;;;;;;;15.67;81.87;98636.78;4956326;28;41538;-82
2023/06/09 01:05:38;;;;;;;7.80;7.10;;;;;;;15.57;81.67;98627.03;4940537;28;40015;-82
2023/06/09 01:08:15;;;;;;;7.90;7.07;;;;;;;15.52;81.44;98622.06;4956780;28;42707;-82
2023/06/09 01:10:49;;;;;;;7.43;6.73;;;;;;;15.51;81.26;98620.38;4940719;28;42578;-82
2023/06/09 01:13:25;;;;;;;7.33;6.73;;;;;;;15.50;81.28;98617.81;4956367;28;40900;-82
2023/06/09 01:16:01;;;;;;;6.93;6.23;;;;;;;15.63;81.24;98634.50;4953884;28;40026;-82
2023/06/09 01:18:32;;;;;;;7.13;6.53;;;;;;;15.54;81.11;98616.59;4940466;28;40839;-82
2023/06/09 01:21:12;;;;;;;6.67;6.07;;;;;;;15.62;81.48;98633.66;4939920;28;41843;-82
2023/06/09 01:23:51;;;;;;;7.37;6.77;;;;;;;15.59;81.55;98627.72;4970910;28;42211;-82
2023/06/09 01:26:22;;;;;;;6.80;6.30;;;;;;;15.65;81.37;98640.56;4939974;28;40226;-82
2023/06/09 01:28:55;;;;;;;8.33;6.50;;;;;;;15.54;81.12;98629.94;4940287;28;41972;-82
2023/06/09 01:31:24;;;;;;;6.13;5.67;;;;;;;15.56;80.82;98620.00;4956517;28;42445;-82
2023/06/09 01:38:06;;;;;;;6.47;5.97;;;;;;;15.56;80.71;98638.69;4973977;28;40569;-82
2023/06/09 01:40:35;;;;;;;7.30;6.10;;;;;;;15.53;81.20;98644.25;4940250;28;41790;-82
2023/06/09 01:43:05;;;;;;;8.17;7.47;;;;;;;15.52;80.97;98647.91;4940326;28;41701;-83
2023/06/09 01:45:33;;;;;;;7.10;6.50;;;;;;;15.52;81.14;98642.56;4956885;28;42204;-81
2023/06/09 01:48:09;;;;;;;7.10;6.50;;;;;;;15.40;81.24;98629.28;4957392;28;40900;-82
2023/06/09 01:50:47;;;;;;;7.70;7.00;;;;;;;15.39;80.56;98622.25;4954212;28;41844;-82
2023/06/09 01:53:19;;;;;;;6.57;6.03;;;;;;;15.50;80.53;98636.50;4957059;28;42700;-82
2023/06/09 01:55:53;;;;;;;6.40;5.90;;;;;;;15.43;80.79;98612.19;4940161;28;42395;-83
2023/06/09 01:58:25;;;;;;;7.33;6.63;;;;;;;15.55;81.11;98627.16;4957354;28;41815;-82
2023/06/09 02:00:53;;;;;;;6.53;5.87;;;;;;;15.51;81.12;98615.03;4954246;28;41709;-82
2023/06/09 02:03:23;;;;;;;7.17;6.57;;;;;;;15.65;81.04;98628.06;4941274;28;42278;-82
2023/06/09 02:05:54;;;;;;;7.20;6.60;;;;;;;15.62;80.89;98616.78;4957403;28;41116;-81
2023/06/09 02:08:22;;;;;;;7.57;6.83;;;;;;;15.73;81.38;98632.72;4940751;28;39225;-83
2023/06/09 02:10:50;;;;;;;7.50;6.90;;;;;;;15.77;81.35;98642.16;4957046;28;42698;-82
2023/06/09 02:13:20;;;;;;;6.57;5.97;;;;;;;15.80;81.22;98632.06;4939981;28;42101;-82
2023/06/09 02:15:49;;;;;;;6.53;6.03;;;;;;;15.84;80.93;98637.13;4939265;28;41485;-82
2023/06/09 02:18:20;;;;;;;7.03;6.43;;;;;;;15.85;80.77;98628.97;4939405;28;39085;-82
2023/06/09 02:20:49;;;;;;;7.00;6.40;;;;;;;15.87;81.02;98627.00;4938501;28;40576;-82
2023/06/09 02:23:19;;;;;;;6.50;6.00;;;;;;;15.88;81.09;98628.72;4972600;28;43726;-83
2023/06/09 02:25:48;;;;;;;7.07;6.47;;;;;;;15.87;81.31;98628.84;4952752;28;42332;-83
2023/06/09 02:28:16;;;;;;;7.00;6.30;;;;;;;15.80;81.17;98624.06;4940706;28;38823;-83
2023/06/09 02:30:44;;;;;;;8.33;7.53;;;;;;;15.82;82.06;98628.41;4940630;28;40723;-82
2023/06/09 02:33:15;;;;;;;9.17;8.30;;;;;;;15.67;82.53;98603.91;4956357;28;42616;-82
2023/06/09 02:35:43;;;;;;;7.63;7.03;;;;;;;15.69;82.44;98618.81;4940849;28;41430;-82
2023/06/09 02:38:11;;;;;;;7.60;6.90;;;;;;;15.69;82.06;98628.63;4940532;28;39076;-82
2023/06/09 02:40:43;;;;;;;6.90;6.30;;;;;;;15.55;81.78;98602.31;4940439;28;40440;-82
2023/06/09 02:43:11;;;;;;;7.30;6.50;;;;;;;15.65;81.49;98627.22;4956725;28;43138;-82
2023/06/09 02:45:38;;;;;;;6.53;5.87;;;;;;;15.61;81.31;98623.94;4956179;28;42213;-81
2023/06/09 02:48:06;;;;;;;5.90;5.40;;;;;;;15.57;81.46;98625.22;4956504;28;40040;-82
2023/06/09 02:50:36;;;;;;;7.20;6.63;;;;;;;15.53;81.44;98628.25;4956450;28;41899;-83
2023/06/09 02:53:09;;;;;;;7.30;6.13;;;;;;;15.53;81.33;98628.25;4940322;28;42846;-82
2023/06/09 02:55:38;;;;;;;8.17;7.47;;;;;;;15.53;81.75;98628.25;4939612;28;41397;-81
2023/06/09 02:58:05;;;;;;;7.67;7.07;;;;;;;15.52;82.12;98631.88;4938649;28;39868;-82
2023/06/09 03:00:33;;;;;;;6.97;6.37;;;;;;;15.51;81.62;98632.84;4939332;28;42040;-82
2023/06/09 03:03:06;;;;;;;8.77;7.97;;;;;;;15.50;82.68;98628.50;4955313;28;43808;-81
2023/06/09 03:05:40;;;;;;;7.23;6.53;;;;;;;15.53;82.73;98633.56;4953147;28;42343;-82
2023/06/09 03:08:09;;;;;;;7.90;7.20;;;;;;;15.52;82.66;98631.88;4942874;28;40296;-82
2023/06/09 03:10:37;;;;;;;7.87;7.17;;;;;;;15.52;82.00;98634.56;4942131;28;41720;-82
2023/06/09 03:13:05;;;;;;;6.97;6.47;;;;;;;15.51;81.99;98633.72;4958277;28;42823;-81
2023/06/09 03:15:40;;;;;;;7.80;7.20;;;;;;;15.52;81.65;98642.56;4958801;28;41212;-82
2023/06/09 03:18:08;;;;;;;6.47;5.93;;;;;;;15.48;81.35;98647.31;4942665;28;39224;-81
2023/06/09 03:20:38;;;;;;;7.10;6.50;;;;;;;15.44;81.52;98644.06;4957902;28;41627;-81
2023/06/09 03:23:10;;;;;;;7.33;6.63;;;;;;;15.34;81.44;98639.63;4958081;28;43829;-81
2023/06/09 03:25:39;;;;;;;5.80;5.30;;;;;;;15.48;81.32;98654.47;4942131;28;42601;-81
2023/06/09 03:28:07;;;;;;;7.00;6.43;;;;;;;15.38;81.30;98647.25;4958203;28;40989;-81
2023/06/09 03:30:36;;;;;;;6.73;6.20;;;;;;;15.48;81.48;98657.13;4942245;28;40604;-82
2023/06/09 03:33:05;;;;;;;6.60;6.00;;;;;;;15.46;81.38;98666.13;4941688;28;41924;-82
2023/06/09 03:35:33;;;;;;;6.20;5.70;;;;;;;15.33;81.04;98649.47;4957787;28;42649;-82
2023/06/09 03:38:02;;;;;;;7.17;6.57;;;;;;;15.45;81.38;98669.75;4942023;28;41140;-82
2023/06/09 03:40:30;;;;;;;6.20;5.70;;;;;;;15.46;80.87;98670.59;4942020;28;41917;-81
2023/06/09 03:42:58;;;;;;;6.80;6.10;;;;;;;15.38;81.05;98655.25;4941910;28;41667;-81
2023/06/09 03:45:26;;;;;;;7.10;6.50;;;;;;;15.26;80.86;98642.97;4958083;28;43254;-82
2023/06/09 03:47:54;;;;;;;7.10;6.40;;;;;;;15.48;80.92;98675.81;4958662;28;40879;-81
2023/06/09 03:50:23;;;;;;;7.90;7.20;;;;;;;15.49;81.26;98666.84;4943432;28;42054;-82
2023/06/09 03:52:51;;;;;;;7.30;6.60;;;;;;;15.43;81.12;98654.88;4958966;28;43822;-82
2023/06/09 03:55:22;;;;;;;8.23;7.43;;;;;;;15.53;80.80;98670.94;4943061;28;41617;-82
2023/06/09 03:57:51;;;;;;;7.50;6.67;;;;;;;15.44;80.89;98645.91;4943179;28;39603;-81
2023/06/09 04:00:19;;;;;;;6.77;6.17;;;;;;;15.51;80.92;98656.88;4942751;28;40969;-81
2023/06/09 04:02:46;;;;;;;6.30;5.80;;;;;;;15.64;81.13;98678.91;4958628;28;41890;-81
2023/06/09 04:05:17;;;;;;;7.43;6.77;;;;;;;15.56;80.90;98665.38;4942565;28;41280;-81
2023/06/09 04:07:47;;;;;;;6.53;6.00;;;;;;;15.72;80.55;98676.41;4942815;28;40092;-81
2023/06/09 04:10:14;;;;;;;6.03;5.50;;;;;;;15.64;80.64;98650.38;4942827;28;40943;-81
2023/06/09 04:12:43;;;;;;;7.20;6.50;;;;;;;15.82;80.80;98672.81;4942428;28;43505;-82
2023/06/09 04:15:13;;;;;;;6.13;5.63;;;;;;;15.89;80.47;98674.97;4940741;28;41334;-82
2023/06/09 04:17:44;;;;;;;6.40;5.90;;;;;;;15.86;80.42;98662.72;4940458;28;39828;-81
2023/06/09 04:20:12;;;;;;;7.57;6.87;;;;;;;16.02;80.39;98684.44;4957039;28;42518;-81
2023/06/09 04:22:48;;;;;;;6.47;5.97;;;;;;;16.10;80.24;98681.94;4941258;28;41819;-81
2023/06/09 04:25:16;;;;;;;7.13;6.47;;;;;;;16.17;80.07;98682.25;4957141;28;42278;-82
2023/06/09 04:27:48;;;;;;;6.47;5.87;;;;;;;16.10;79.76;98660.56;4957174;28;40713;-81
2023/06/09 04:30:16;;;;;;;6.23;5.73;;;;;;;16.21;79.66;98662.28;4941648;28;40644;-83
2023/06/09 04:32:43;;;;;;;8.63;7.77;;;;;;;16.38;79.32;98680.34;4940989;28;41477;-82
2023/06/09 04:35:11;;;;;;;7.73;7.10;;;;;;;16.45;79.65;98676.13;4957388;28;42888;-82
2023/06/09 04:37:40;;;;;;;6.70;6.20;;;;;;;16.52;79.52;98676.44;4957286;28;39992;-82
2023/06/09 04:40:10;;;;;;;8.53;7.17;;;;;;;16.61;79.11;98674.75;4957544;28;42736;-81
2023/06/09 04:42:39;;;;;;;6.77;6.27;;;;;;;16.68;78.84;98674.13;4941586;28;42819;-82
2023/06/09 04:45:11;;;;;;;6.87;6.27;;;;;;;16.48;79.18;98625.06;4958111;28;42325;-82
2023/06/09 04:47:41;;;;;;;8.27;7.47;;;;;;;16.84;78.87;98665.53;4941723;28;39005;-82
2023/06/09 04:50:12;;;;;;;9.27;7.77;;;;;;;16.85;79.08;98661.88;4955310;28;41960;-80
2023/06/09 04:52:39;;;;;;;7.80;7.10;;;;;;;16.99;78.91;98660.59;4941367;28;41853;-82
2023/06/09 04:55:08;;;;;;;7.77;7.07;;;;;;;16.97;78.79;98646.53;4942208;28;42179;-81
2023/06/09 04:57:36;;;;;;;6.93;6.33;;;;;;;17.15;78.67;98663.56;4958088;28;40052;-81
2023/06/09 05:00:16;;;;;;;7.37;6.77;;;;;;;17.24;78.01;98665.38;4942022;28;41901;-81
2023/06/09 05:02:46;;;;;;;7.60;7.00;;;;;;;17.32;78.21;98673.53;4957135;28;42593;-81
2023/06/09 05:05:15;;;;;;;7.00;6.40;;;;;;;17.43;77.83;98678.72;4957908;28;42865;-83
2023/06/09 05:07:43;;;;;;;8.67;7.87;;;;;;;17.52;77.72;98683.25;4957623;28;40161;-81
2023/06/09 05:10:11;;;;;;;8.70;7.90;;;;;;;17.60;77.77;98686.03;4957359;28;42461;-81
2023/06/09 05:12:40;;;;;;;7.73;7.13;;;;;;;17.69;77.70;98680.81;4955498;28;42650;-81
2023/06/09 05:15:10;;;;;;;8.20;7.50;;;;;;;17.81;77.46;98671.63;4956455;28;42450;-81
2023/06/09 05:17:38;;;;;;;7.03;6.43;;;;;;;17.89;77.11;98674.44;4940154;28;39704;-81
2023/06/09 05:20:10;;;;;;;7.83;7.03;;;;;;;18.01;77.18;98678.63;4956427;28;42664;-80
2023/06/09 05:22:38;;;;;;;8.10;7.27;;;;;;;17.93;76.87;98649.88;4955372;28;42814;-81
2023/06/09 05:25:09;;;;;;;8.43;7.73;;;;;;;18.23;76.80;98683.59;4940263;28;41279;-81
2023/06/09 05:27:37;;;;;;;7.43;6.83;;;;;;;18.22;76.38;98663.16;4956466;28;40647;-81
2023/06/09 05:30:06;;;;;;;8.57;7.87;;;;;;;18.42;76.46;98674.59;4956505;28;41881;-81
2023/06/09 05:32:35;;;;;;;7.90;7.10;;;;;;;18.57;76.28;98681.16;4940026;28;42043;-81
2023/06/09 05:35:04;;;;;;;8.63;7.83;;;;;;;18.63;76.19;98671.72;4956291;28;42244;-81
2023/06/09 05:37:33;;;;;;;8.43;7.77;;;;;;;18.83;75.68;98694.72;4956026;28;40939;-82
2023/06/09 05:40:01;;;;;;;9.77;8.77;;;;;;;18.92;75.21;98684.91;4939758;28;40990;-80
2023/06/09 05:42:28;;;;;;;7.70;7.10;;;;;;;19.05;75.33;98695.25;4955927;28;42529;-81
2023/06/09 05:44:56;;;;;;;7.90;7.13;;;;;;;19.15;74.76;98693.38;4955904;28;41497;-81
2023/06/09 05:47:23;;;;;;;10.00;9.13;;;;;;;19.25;73.97;98696.81;4940799;28;40038;-81
2023/06/09 05:49:51;;;;;;;9.10;8.30;;;;;;;19.34;73.71;98690.50;4974240;28;41910;-82
2023/06/09 05:52:18;;;;;;;8.87;7.97;;;;;;;19.32;73.41;98673.69;4956414;28;42174;-82
2023/06/09 05:54:48;;;;;;;9.43;8.67;;;;;;;19.36;73.18;98667.03;4957050;28;43286;-83
2023/06/09 05:57:15;;;;;;;8.53;7.83;;;;;;;19.75;72.88;98701.59;4956673;28;39068;-82
2023/06/09 05:59:44;;;;;;;8.43;7.63;;;;;;;19.65;72.57;98673.00;4956992;28;41479;-82
2023/06/09 06:02:12;;;;;;;8.23;7.43;;;;;;;19.98;72.98;98698.22;4956813;28;42737;-82
2023/06/09 06:04:40;;;;;;;7.83;7.17;;;;;;;20.01;72.69;98687.16;4956359;28;41032;-82
2023/06/09 06:07:08;;;;;;;8.10;7.40;;;;;;;20.24;72.63;98706.25;4940296;28;40981;-81
2023/06/09 06:09:35;;;;;;;7.10;6.53;;;;;;;20.34;72.40;98698.06;4956777;28;41638;-80
2023/06/09 06:12:05;;;;;;;7.70;7.10;;;;;;;20.48;70.94;98710.94;4940489;28;42101;-81
2023/06/09 06:14:33;;;;;;;7.60;6.93;;;;;;;20.64;70.42;98712.84;4955378;28;42635;-87
2023/06/09 06:17:01;;;;;;;8.60;7.80;;;;;;;20.79;69.75;98708.50;4944195;28;38564;-78
2023/06/09 06:19:28;;;;;;;7.90;6.97;;;;;;;20.90;69.26;98716.28;4954974;28;41997;-83
2023/06/09 06:21:56;;;;;;;9.17;8.27;;;;;;;20.99;67.45;98723.38;4912324;28;41811;-81
2023/06/09 06:24:24;;;;;;;8.20;7.50;;;;;;;21.10;66.54;98719.53;4919655;28;41089;-83
2023/06/09 06:26:51;;;;;;;7.67;6.90;;;;;;;21.28;66.86;98722.94;4947877;28;39789;-83
2023/06/09 06:29:20;;;;;;;8.03;7.33;;;;;;;21.42;66.05;98721.44;4935935;28;42753;-84
2023/06/09 06:31:48;;;;;;;7.27;6.63;;;;;;;21.56;65.81;98720.75;4952425;28;43832;-83
2023/06/09 06:34:16;;;;;;;7.30;6.60;;;;;;;21.68;64.97;98727.50;4935084;28;43101;-80
2023/06/09 06:36:44;;;;;;;6.73;6.13;;;;;;;21.78;64.55;98716.53;4919131;28;40147;-84
2023/06/09 06:39:13;;;;;;;7.90;7.10;;;;;;;22.00;64.32;98712.34;4936173;28;41154;-87
2023/06/09 06:41:41;;;;;;;7.50;6.90;;;;;;;22.31;63.63;98732.13;4919309;28;41812;-85
2023/06/09 06:44:09;;;;;;;6.80;6.30;;;;;;;22.39;61.77;98724.00;4920893;28;41269;-84
2023/06/09 06:46:38;;;;;;;7.10;6.40;;;;;;;22.69;62.19;98743.13;4920884;28;38775;-88
2023/06/09 06:49:05;;;;;;;7.43;6.83;;;;;;;22.72;62.44;98723.91;4921234;28;40713;-82
2023/06/09 06:51:33;;;;;;;7.33;6.63;;;;;;;22.91;61.41;98739.69;4952171;28;44760;-89
2023/06/09 06:54:02;;;;;;;7.70;7.00;;;;;;;22.90;59.19;98762.28;4936472;28;41156;-82
2023/06/09 06:56:30;;;;;;;6.77;6.17;;;;;;;22.97;59.75;98754.34;4920052;28;39755;-85
2023/06/09 06:58:57;;;;;;;6.30;5.80;;;;;;;23.03;60.74;98732.84;4920692;28;40700;-84
2023/06/09 07:01:25;;;;;;;7.20;6.50;;;;;;;23.19;58.89;98738.16;4936057;28;44580;-85
2023/06/09 07:03:56;;;;;;;6.33;5.73;;;;;;;23.43;59.54;98744.41;4936953;28;43563;-84
2023/06/09 07:06:23;;;;;;;6.50;6.00;;;;;;;23.51;58.61;98733.56;4920157;28;39034;-82
2023/06/09 07:08:54;;;;;;;6.30;5.80;;;;;;;23.55;58.37;98697.03;4920616;28;40662;-85
2023/06/09 07:11:23;;;;;;;6.67;5.97;;;;;;;24.05;57.53;98746.97;4919419;28;43319;-85
2023/06/09 07:13:51;;;;;;;7.07;6.47;;;;;;;24.11;56.93;98738.13;4918930;28;41081;-86
2023/06/09 07:16:22;;;;;;;7.03;6.33;;;;;;;24.30;56.17;98753.84;4934702;28;38938;-83
2023/06/09 07:18:56;;;;;;;5.87;5.37;;;;;;;24.23;56.42;98725.84;4935174;28;42213;-85
2023/06/09 07:21:23;;;;;;;6.53;6.03;;;;;;;24.43;56.34;98729.66;4933047;28;43183;-85
2023/06/09 07:24:14;;;;;;;7.70;7.10;;;;;;;24.60;55.50;98731.13;4934767;28;43505;-82
2023/06/09 07:27:21;;;;;;;6.30;5.70;;;;;;;24.67;53.80;98702.28;4934637;28;39917;-85
2023/06/09 07:29:49;;;;;;;5.80;5.30;;;;;;;25.31;54.06;98748.50;4919061;28;41861;-87
2023/06/09 07:32:17;;;;;;;6.60;6.10;;;;;;;25.93;51.97;98779.59;4918978;28;41925;-82
2023/06/09 07:34:46;;;;;;;6.57;5.50;;;;;;;26.42;50.65;98757.84;4918867;28;41355;-85
2023/06/09 07:37:14;;;;;;;6.23;5.73;;;;;;;26.78;50.82;98774.78;4918898;28;40081;-90
2023/06/09 07:39:41;;;;;;;6.13;5.63;;;;;;;26.89;50.85;98769.81;4918935;28;40609;-84
2023/06/09 07:42:10;;;;;;;6.30;5.80;;;;;;;26.87;50.72;98759.13;4935979;28;42763;-86
2023/06/09 07:44:37;;;;;;;5.90;5.40;;;;;;;27.25;50.72;98773.09;4920063;28;42709;-86
2023/06/09 07:47:08;;;;;;;9.93;5.10;;;;;;;27.36;49.92;98758.06;4936280;28;41025;-84
2023/06/09 07:49:36;;;;;;;5.80;5.30;;;;;;;27.16;49.59;98763.47;4920388;28;41869;-85
2023/06/09 07:52:09;;;;;;;6.53;5.93;;;;;;;27.59;49.47;98771.31;4920041;28;41688;-86
2023/06/09 07:54:37;;;;;;;6.27;5.77;;;;;;;27.49;49.67;98752.66;4923428;28;42017;-84
2023/06/09 07:57:05;;;;;;;6.27;5.77;;;;;;;27.44;49.10;98761.47;4939615;28;39964;-85
2023/06/09 07:59:33;;;;;;;5.73;5.07;;;;;;;27.40;49.08;98760.19;4923332;28;40729;-86
2023/06/09 08:02:01;;;;;;;5.67;5.17;;;;;;;27.36;49.43;98750.75;4956209;28;42802;-85
2023/06/09 08:04:29;;;;;;;6.20;5.63;;;;;;;27.43;48.80;98757.06;4938825;28;42617;-84
2023/06/09 08:06:58;;;;;;;6.03;5.63;;;;;;;27.34;49.64;98741.97;4938941;28;40112;-83
2023/06/09 08:09:28;;;;;;;6.13;5.63;;;;;;;27.34;49.68;98744.69;4921882;28;42276;-85
2023/06/09 08:11:55;;;;;;;6.17;5.67;;;;;;;27.39;48.72;98761.22;4921638;28;41820;-86
2023/06/09 08:14:23;;;;;;;6.33;5.73;;;;;;;27.35;49.34;98748.22;4937625;28;43184;-88
2023/06/09 08:16:53;;;;;;;6.23;5.73;;;;;;;27.35;48.18;98753.69;4921598;28;39074;-89
2023/06/09 08:19:21;;;;;;;6.70;6.10;;;;;;;27.49;47.94;98772.53;4921635;28;40969;-84
2023/06/09 08:21:49;;;;;;;6.17;5.70;;;;;;;27.53;48.34;98762.94;4921102;28;42534;-85
2023/06/09 08:24:17;;;;;;;5.47;4.80;;;;;;;27.67;48.49;98754.81;4937766;28;42238;-84
2023/06/09 08:26:48;;;;;;;6.00;5.37;;;;;;;27.90;47.47;98768.88;4954617;28;40184;-85
2023/06/09 08:29:16;;;;;;;5.90;5.20;;;;;;;28.24;47.04;98774.13;4921975;28;40712;-86
2023/06/09 08:31:44;;;;;;;6.50;5.90;;;;;;;28.57;44.98;98792.28;4954383;28;43000;-86
2023/06/09 08:34:12;;;;;;;5.40;5.00;;;;;;;28.90;45.69;98776.75;4937250;28;41174;-83
2023/06/09 08:36:39;;;;;;;5.03;4.53;;;;;;;29.14;42.88;98785.25;4937369;28;41147;-84
2023/06/09 08:39:07;;;;;;;5.30;4.90;;;;;;;29.36;42.88;98792.06;4921343;28;40769;-88
2023/06/09 08:41:39;;;;;;;5.63;5.10;;;;;;;29.55;44.17;98785.66;4938619;28;42591;-83
2023/06/09 08:44:08;;;;;;;5.37;4.87;;;;;;;29.73;44.59;98771.28;4922560;28;42285;-84
2023/06/09 08:46:37;;;;;;;5.77;5.27;;;;;;;29.87;42.10;98791.13;4922386;28;39186;-84
2023/06/09 08:49:04;;;;;;;6.23;5.60;;;;;;;29.91;42.75;98787.75;4922555;28;41797;-87
2023/06/09 08:51:33;;;;;;;5.80;5.30;;;;;;;30.09;42.80;98781.53;4922182;28;44464;-86
2023/06/09 08:54:01;;;;;;;6.43;5.67;;;;;;;30.32;42.76;98779.00;4922233;28;41868;-81
2023/06/09 08:56:30;;;;;;;7.07;5.57;;;;;;;30.56;42.27;98787.44;4955112;28;40278;-82
2023/06/09 08:58:58;;;;;;;5.47;5.03;;;;;;;30.54;40.91;98757.59;4954938;28;41788;-82
2023/06/09 09:01:28;;;;;;;5.43;4.93;;;;;;;31.03;39.60;98799.56;4937643;28;42811;-82
2023/06/09 09:03:55;;;;;;;5.67;5.17;;;;;;;31.46;38.47;98782.16;4921701;28;42359;-87
2023/06/09 09:06:23;;;;;;;5.50;5.00;;;;;;;31.85;37.45;98808.19;4922008;28;40434;-86
2023/06/09 09:08:51;;;;;;;6.20;5.57;;;;;;;32.52;35.58;98819.75;4940230;28;42171;-86
2023/06/09 09:11:19;;;;;;;5.60;5.03;;;;;;;32.66;36.85;98794.56;4938350;28;42995;-83
2023/06/09 09:13:49;;;;;;;5.43;5.03;;;;;;;32.89;35.82;98821.19;4937057;28;43164;-83
2023/06/09 09:16:17;;;;;;;5.17;4.77;;;;;;;33.44;36.22;98809.75;4920604;28;39231;-84
2023/06/09 09:18:47;;;;;;;4.70;4.40;;;;;;;33.91;36.67;98802.13;4920835;28;40610;-83
2023/06/09 09:21:23;;;;;;;5.30;4.80;;;;;;;34.13;34.36;98825.06;4920829;28;42877;-88
2023/06/09 09:23:58;;;;;;;5.73;5.20;;;;;;;34.03;33.94;98826.81;4921188;28;41480;-86
2023/06/09 09:26:30;;;;;;;4.53;4.23;;;;;;;33.98;33.12;98818.50;4921260;28;40120;-85
2023/06/09 09:29:01;;;;;;;5.43;4.93;;;;;;;34.08;34.45;98813.16;4922327;28;42330;-86
2023/06/09 09:31:33;;;;;;;5.13;4.60;;;;;;;34.74;35.40;98798.56;4921771;28;42879;-88
2023/06/09 09:34:03;;;;;;;4.77;4.27;;;;;;;35.90;34.23;98793.69;4953236;28;42032;-86
2023/06/09 09:36:30;;;;;;;4.80;4.40;;;;;;;36.71;30.04;98817.56;4921362;28;38972;-82
2023/06/09 09:39:05;;;;;;;4.13;3.73;;;;;;;37.09;28.83;98828.28;4921697;28;40692;-84
2023/06/09 09:41:32;;;;;;;4.50;4.20;;;;;;;37.58;27.79;98836.25;4921429;28;42296;-83
2023/06/09 09:44:00;;;;;;;4.13;3.83;;;;;;;38.17;26.62;98855.22;4937564;28;42119;-83
2023/06/09 09:46:27;;;;;;;4.30;4.00;;;;;;;38.54;26.70;98838.38;4937952;28;40021;-85
2023/06/09 09:48:55;;;;;;;4.73;4.33;;;;;;;38.84;25.88;98840.25;4936878;28;42655;-82
2023/06/09 09:51:24;;;;;;;4.50;4.10;;;;;;;39.59;25.78;98833.66;4921432;28;43291;-84
2023/06/09 09:53:52;;;;;;;4.97;4.30;;;;;;;40.58;24.85;98839.94;4921423;28;43855;-83
2023/06/09 09:56:22;;;;;;;3.70;3.40;;;;;;;41.11;23.98;98834.41;4935772;28;39037;-87
2023/06/09 09:58:53;;;;;;;3.78;3.47;;;;;;;41.35;24.22;98829.69;4920454;28;41139;-85
2023/06/09 10:01:25;;;;;;;3.80;3.50;;;;;;;40.86;24.95;98818.84;4920545;28;41555;-86
2023/06/09 10:03:54;;;;;;;4.28;3.90;;;;;;;40.30;24.76;98788.03;4920825;28;41366;-87
2023/06/09 10:06:28;;;;;;;3.80;3.50;;;;;;;39.70;25.53;98796.44;4920294;28;38791;-89
2023/06/09 10:08:58;;;;;;;4.43;4.13;;;;;;;38.55;26.49;98793.81;4920590;28;40948;-88
2023/06/09 10:11:30;;;;;;;4.40;4.00;;;;;;;37.62;28.62;98765.47;4920158;28;42074;-83
2023/06/09 10:13:58;;;;;;;4.63;4.23;;;;;;;36.97;28.31;98764.97;4919950;28;41434;-84
2023/06/09 10:16:27;;;;;;;4.87;4.47;;;;;;;36.90;29.14;98769.91;4952239;28;41942;-87
2023/06/09 10:18:56;;;;;;;4.83;4.40;;;;;;;36.99;27.82;98786.78;4919755;28;40519;-86
2023/06/09 10:21:27;;;;;;;5.78;4.28;;;;;;;36.90;28.57;98780.13;4935292;28;41763;-85
2023/06/09 10:23:57;;;;;;;4.53;4.10;;;;;;;36.79;29.74;98756.31;4936158;28;41372;-89
2023/06/09 10:26:25;;;;;;;4.22;3.92;;;;;;;36.74;29.07;98757.13;4919981;28;38732;-89
2023/06/09 10:28:53;;;;;;;4.82;3.78;;;;;;;36.77;28.06;98762.13;4920289;28;40673;-86
2023/06/09 10:31:25;;;;;;;4.18;3.88;;;;;;;36.88;28.17;98771.28;4919801;28;44101;-87
2023/06/09 10:33:54;;;;;;;4.30;4.03;;;;;;;36.84;28.78;98748.09;4921134;28;41034;-88
2023/06/09 10:36:22;;;;;;;4.07;3.78;;;;;;;36.93;29.36;98746.47;4921118;28;39045;-88
2023/06/09 10:38:53;;;;;;;4.55;4.15;;;;;;;36.98;28.54;98758.34;4920566;28;40356;-83
2023/06/09 10:41:34;;;;;;;5.10;4.57;;;;;;;36.85;27.07;98772.63;4936353;28;41998;-82
2023/06/09 10:44:35;;;;;;;5.63;5.00;;;;;;;36.59;28.07;98751.50;4920543;28;41158;-82
2023/06/09 10:47:03;;;;;;;4.47;4.17;;;;;;;36.31;27.76;98760.97;4920964;28;39030;-87
2023/06/09 10:49:39;;;;;;;5.43;4.97;;;;;;;36.13;29.75;98744.78;4920716;28;42094;-88
2023/06/09 10:52:10;;;;;;;4.87;4.57;;;;;;;36.05;29.71;98740.63;4935985;28;44180;-88
2023/06/09 10:54:39;;;;;;;4.90;4.53;;;;;;;35.97;29.68;98739.19;4936629;28;42258;-85
2023/06/09 10:57:27;;;;;;;4.83;4.43;;;;;;;35.84;29.75;98738.78;4920633;28;40462;-81
2023/06/09 10:59:55;;;;;;;4.70;4.30;;;;;;;35.46;30.31;98709.47;4936355;28;40658;-87
2023/06/09 11:02:23;;;;;;;5.20;4.80;;;;;;;35.43;31.76;98712.75;4918437;28;41820;-84
2023/06/09 11:04:52;;;;;;;4.60;4.20;;;;;;;35.41;29.35;98728.69;4918372;28;41517;-78
2023/06/09 11:07:22;;;;;;;4.70;4.30;;;;;;;35.42;32.28;98702.81;4917957;28;41161;-78
2023/06/09 11:10:35;;;;;;;4.73;4.33;;;;;;;35.44;30.30;98725.41;4934460;28;41795;-77
2023/06/09 11:13:39;;;;;;;5.17;4.77;;;;;;;35.35;31.37;98716.81;4933912;28;41982;-77
2023/06/09 11:16:08;;;;;;;5.27;4.87;;;;;;;35.21;31.64;98697.06;4933870;28;43211;-77
2023/06/09 11:18:38;;;;;;;5.47;5.07;;;;;;;35.32;29.77;98713.72;4934422;28;40919;-77
2023/06/09 11:21:14;;;;;;;4.40;4.00;;;;;;;35.36;31.43;98698.34;4933760;28;42542;-77
2023/06/09 11:24:12;;;;;;;5.83;4.40;;;;;;;35.50;32.79;98683.03;4949348;28;43616;-77
2023/06/09 11:26:39;;;;;;;5.10;4.60;;;;;;;35.23;28.68;98683.06;4876732;29;43593;-77
2023/06/09 11:29:23;;;;;;;5.50;5.10;;;;;;;35.45;28.65;98708.63;4940872;28;40970;-78
2023/06/09 11:31:51;;;;;;;4.37;3.93;;;;;;;35.48;30.11;98708.13;4936978;28;41841;-78
2023/06/09 11:34:51;;;;;;;4.80;4.50;;;;;;;35.33;28.59;98715.38;4937217;28;43303;-76
2023/06/09 11:37:20;;;;;;;4.37;3.97;;;;;;;35.33;28.84;98704.38;4951196;28;42177;-77
2023/06/09 11:39:49;;;;;;;5.20;4.73;;;;;;;35.60;30.72;98688.66;4937045;28;39041;-77
2023/06/09 11:42:17;;;;;;;5.00;4.60;;;;;;;36.08;31.00;98684.94;4920895;28;40595;-77
2023/06/09 11:44:46;;;;;;;4.53;4.13;;;;;;;36.57;27.99;98706.78;4936670;28;42927;-76
2023/06/09 11:47:25;;;;;;;5.37;4.87;;;;;;;37.01;28.39;98686.03;4936854;28;42128;-77
2023/06/09 11:50:04;;;;;;;4.60;4.28;;;;;;;37.99;27.17;98688.66;4937971;28;39950;-76
2023/06/09 11:52:34;;;;;;;4.32;4.03;;;;;;;39.10;25.89;98692.28;4921505;28;41771;-75